sensor_id;sensor_type;location;lat;lon;timestamp;P1;durP1;ratioP1;P2;durP2;ratioP2
46875;SDS011;32866;50.160;14.768;2023-02-28T00:00:46;9.93;;;6.68;;
46875;SDS011;32866;50.160;14.768;2023-02-28T00:03:11;11.15;;;6.45;;
46875;SDS011;32866;50.160;14.768;2023-02-28T00:05:36;11.98;;;6.13;;
46875;SDS011;32866;50.160;14.768;2023-02-28T00:08:02;8.30;;;6.53;;
46875;SDS011;32866;50.160;14.768;2023-02-28T00:10:28;10.10;;;6.53;;
46875;SDS011;32866;50.160;14.768;2023-02-28T00:12:56;8.97;;;5.97;;
46875;SDS011;32866;50.160;14.768;2023-02-28T00:15:25;14.50;;;8.23;;
46875;SDS011;32866;50.160;14.768;2023-02-28T00:20:16;15.23;;;7.50;;
46875;SDS011;32866;50.160;14.768;2023-02-28T00:22:43;11.07;;;7.28;;
46875;SDS011;32866;50.160;14.768;2023-02-28T00:25:10;14.33;;;8.23;;
46875;SDS011;32866;50.160;14.768;2023-02-28T00:27:37;13.73;;;7.63;;
46875;SDS011;32866;50.160;14.768;2023-02-28T00:30:04;12.03;;;6.90;;
46875;SDS011;32866;50.160;14.768;2023-02-28T00:32:31;10.93;;;6.83;;
46875;SDS011;32866;50.160;14.768;2023-02-28T00:34:57;12.98;;;7.15;;
46875;SDS011;32866;50.160;14.768;2023-02-28T00:37:22;16.58;;;8.07;;
46875;SDS011;32866;50.160;14.768;2023-02-28T00:39:48;10.55;;;7.60;;
46875;SDS011;32866;50.160;14.768;2023-02-28T00:42:13;13.98;;;7.93;;
46875;SDS011;32866;50.160;14.768;2023-02-28T00:44:39;11.10;;;7.07;;
46875;SDS011;32866;50.160;14.768;2023-02-28T00:47:04;13.45;;;8.30;;
46875;SDS011;32866;50.160;14.768;2023-02-28T00:49:30;10.45;;;7.45;;
46875;SDS011;32866;50.160;14.768;2023-02-28T00:51:56;14.90;;;7.82;;
46875;SDS011;32866;50.160;14.768;2023-02-28T00:54:21;16.00;;;9.07;;
46875;SDS011;32866;50.160;14.768;2023-02-28T00:56:47;15.23;;;7.20;;
46875;SDS011;32866;50.160;14.768;2023-02-28T00:59:14;11.32;;;7.53;;
46875;SDS011;32866;50.160;14.768;2023-02-28T01:01:40;12.60;;;7.27;;
46875;SDS011;32866;50.160;14.768;2023-02-28T01:04:06;12.13;;;8.27;;
46875;SDS011;32866;50.160;14.768;2023-02-28T01:06:31;15.65;;;8.57;;
46875;SDS011;32866;50.160;14.768;2023-02-28T01:08:57;11.35;;;7.78;;
46875;SDS011;32866;50.160;14.768;2023-02-28T01:13:49;16.20;;;7.83;;
46875;SDS011;32866;50.160;14.768;2023-02-28T01:16:14;20.42;;;9.15;;
46875;SDS011;32866;50.160;14.768;2023-02-28T01:18:40;18.05;;;8.43;;
46875;SDS011;32866;50.160;14.768;2023-02-28T01:21:06;22.48;;;9.27;;
46875;SDS011;32866;50.160;14.768;2023-02-28T01:23:33;18.03;;;8.90;;
46875;SDS011;32866;50.160;14.768;2023-02-28T01:26:09;20.08;;;8.85;;
46875;SDS011;32866;50.160;14.768;2023-02-28T01:28:37;13.80;;;9.00;;
46875;SDS011;32866;50.160;14.768;2023-02-28T01:31:02;15.45;;;9.40;;
46875;SDS011;32866;50.160;14.768;2023-02-28T01:33:28;18.83;;;8.90;;
46875;SDS011;32866;50.160;14.768;2023-02-28T01:36:00;13.48;;;8.55;;
46875;SDS011;32866;50.160;14.768;2023-02-28T01:38:26;14.07;;;8.00;;
46875;SDS011;32866;50.160;14.768;2023-02-28T01:40:51;16.70;;;8.15;;
46875;SDS011;32866;50.160;14.768;2023-02-28T01:43:24;14.20;;;8.70;;
46875;SDS011;32866;50.160;14.768;2023-02-28T01:45:51;15.40;;;8.70;;
46875;SDS011;32866;50.160;14.768;2023-02-28T01:48:18;12.57;;;7.30;;
46875;SDS011;32866;50.160;14.768;2023-02-28T01:50:46;13.77;;;7.70;;
46875;SDS011;32866;50.160;14.768;2023-02-28T01:53:14;18.60;;;8.30;;
46875;SDS011;32866;50.160;14.768;2023-02-28T01:55:45;11.90;;;7.17;;
46875;SDS011;32866;50.160;14.768;2023-02-28T01:58:13;16.50;;;7.70;;
46875;SDS011;32866;50.160;14.768;2023-02-28T02:00:39;12.13;;;7.50;;
46875;SDS011;32866;50.160;14.768;2023-02-28T02:03:11;15.23;;;7.97;;
46875;SDS011;32866;50.160;14.768;2023-02-28T02:05:39;16.70;;;8.03;;
46875;SDS011;32866;50.160;14.768;2023-02-28T02:08:07;12.37;;;8.03;;
46875;SDS011;32866;50.160;14.768;2023-02-28T02:10:39;11.97;;;7.70;;
46875;SDS011;32866;50.160;14.768;2023-02-28T02:18:57;10.80;;;5.37;;
46875;SDS011;32866;50.160;14.768;2023-02-28T02:27:19;12.93;;;6.50;;
46875;SDS011;32866;50.160;14.768;2023-02-28T02:29:57;11.77;;;6.35;;
46875;SDS011;32866;50.160;14.768;2023-02-28T02:40:50;10.90;;;6.83;;
46875;SDS011;32866;50.160;14.768;2023-02-28T02:46:04;12.17;;;6.33;;
46875;SDS011;32866;50.160;14.768;2023-02-28T02:48:35;12.03;;;6.20;;
46875;SDS011;32866;50.160;14.768;2023-02-28T02:51:06;7.60;;;5.17;;
46875;SDS011;32866;50.160;14.768;2023-02-28T02:53:46;11.80;;;6.23;;
46875;SDS011;32866;50.160;14.768;2023-02-28T02:56:15;11.73;;;6.93;;
46875;SDS011;32866;50.160;14.768;2023-02-28T02:58:46;9.17;;;5.47;;
46875;SDS011;32866;50.160;14.768;2023-02-28T03:01:21;11.67;;;5.73;;
46875;SDS011;32866;50.160;14.768;2023-02-28T03:04:02;7.63;;;5.93;;
46875;SDS011;32866;50.160;14.768;2023-02-28T03:06:32;8.60;;;6.00;;
46875;SDS011;32866;50.160;14.768;2023-02-28T03:08:58;11.32;;;6.60;;
46875;SDS011;32866;50.160;14.768;2023-02-28T03:11:24;13.43;;;6.27;;
46875;SDS011;32866;50.160;14.768;2023-02-28T03:21:40;12.27;;;6.57;;
46875;SDS011;32866;50.160;14.768;2023-02-28T03:24:12;11.45;;;6.30;;
46875;SDS011;32866;50.160;14.768;2023-02-28T03:26:49;9.40;;;6.23;;
46875;SDS011;32866;50.160;14.768;2023-02-28T03:29:24;11.23;;;6.27;;
46875;SDS011;32866;50.160;14.768;2023-02-28T03:32:17;11.37;;;6.73;;
46875;SDS011;32866;50.160;14.768;2023-02-28T03:34:53;11.07;;;6.33;;
46875;SDS011;32866;50.160;14.768;2023-02-28T03:37:24;15.63;;;7.37;;
46875;SDS011;32866;50.160;14.768;2023-02-28T03:40:02;12.70;;;6.90;;
46875;SDS011;32866;50.160;14.768;2023-02-28T03:42:34;13.20;;;6.37;;
46875;SDS011;32866;50.160;14.768;2023-02-28T03:45:08;12.20;;;6.27;;
46875;SDS011;32866;50.160;14.768;2023-02-28T03:47:58;9.48;;;5.35;;
46875;SDS011;32866;50.160;14.768;2023-02-28T03:53:15;10.50;;;6.70;;
46875;SDS011;32866;50.160;14.768;2023-02-28T03:55:47;13.33;;;5.73;;
46875;SDS011;32866;50.160;14.768;2023-02-28T03:58:22;13.07;;;6.47;;
46875;SDS011;32866;50.160;14.768;2023-02-28T04:01:11;15.57;;;7.23;;
46875;SDS011;32866;50.160;14.768;2023-02-28T04:03:40;10.80;;;6.15;;
46875;SDS011;32866;50.160;14.768;2023-02-28T04:06:07;14.25;;;7.22;;
46875;SDS011;32866;50.160;14.768;2023-02-28T04:08:45;11.47;;;6.60;;
46875;SDS011;32866;50.160;14.768;2023-02-28T04:13:45;12.10;;;6.80;;
46875;SDS011;32866;50.160;14.768;2023-02-28T04:18:36;12.63;;;7.33;;
46875;SDS011;32866;50.160;14.768;2023-02-28T04:21:06;18.20;;;7.30;;
46875;SDS011;32866;50.160;14.768;2023-02-28T04:23:32;14.43;;;7.27;;
46875;SDS011;32866;50.160;14.768;2023-02-28T04:25:58;14.40;;;7.83;;
46875;SDS011;32866;50.160;14.768;2023-02-28T04:30:54;9.67;;;6.40;;
46875;SDS011;32866;50.160;14.768;2023-02-28T04:33:23;14.47;;;6.23;;
46875;SDS011;32866;50.160;14.768;2023-02-28T04:38:22;13.50;;;7.50;;
46875;SDS011;32866;50.160;14.768;2023-02-28T04:43:13;15.07;;;7.10;;
46875;SDS011;32866;50.160;14.768;2023-02-28T04:45:38;11.40;;;6.03;;
46875;SDS011;32866;50.160;14.768;2023-02-28T04:48:03;14.90;;;8.13;;
46875;SDS011;32866;50.160;14.768;2023-02-28T04:50:29;12.55;;;7.68;;
46875;SDS011;32866;50.160;14.768;2023-02-28T04:52:55;13.20;;;7.60;;
46875;SDS011;32866;50.160;14.768;2023-02-28T04:55:21;19.33;;;7.50;;
46875;SDS011;32866;50.160;14.768;2023-02-28T05:00:12;12.67;;;6.97;;
46875;SDS011;32866;50.160;14.768;2023-02-28T05:02:40;14.77;;;7.53;;
46875;SDS011;32866;50.160;14.768;2023-02-28T05:07:31;12.43;;;7.53;;
46875;SDS011;32866;50.160;14.768;2023-02-28T05:10:00;16.47;;;7.03;;
46875;SDS011;32866;50.160;14.768;2023-02-28T05:14:50;15.97;;;7.70;;
46875;SDS011;32866;50.160;14.768;2023-02-28T05:19:41;14.77;;;8.50;;
46875;SDS011;32866;50.160;14.768;2023-02-28T05:24:37;13.37;;;7.07;;
46875;SDS011;32866;50.160;14.768;2023-02-28T05:29:28;12.47;;;7.63;;
46875;SDS011;32866;50.160;14.768;2023-02-28T05:34:18;10.77;;;7.90;;
46875;SDS011;32866;50.160;14.768;2023-02-28T05:39:09;15.00;;;7.17;;
46875;SDS011;32866;50.160;14.768;2023-02-28T05:41:41;14.30;;;7.27;;
46875;SDS011;32866;50.160;14.768;2023-02-28T05:44:07;16.47;;;8.07;;
46875;SDS011;32866;50.160;14.768;2023-02-28T05:48:58;13.80;;;7.00;;
46875;SDS011;32866;50.160;14.768;2023-02-28T05:51:25;15.37;;;7.93;;
46875;SDS011;32866;50.160;14.768;2023-02-28T05:56:15;12.97;;;6.97;;
46875;SDS011;32866;50.160;14.768;2023-02-28T05:58:41;17.40;;;8.02;;
46875;SDS011;32866;50.160;14.768;2023-02-28T06:03:52;15.20;;;7.70;;
46875;SDS011;32866;50.160;14.768;2023-02-28T06:08:42;14.37;;;7.27;;
46875;SDS011;32866;50.160;14.768;2023-02-28T06:11:09;20.30;;;8.57;;
46875;SDS011;32866;50.160;14.768;2023-02-28T06:16:01;17.60;;;7.73;;
46875;SDS011;32866;50.160;14.768;2023-02-28T06:20:52;11.07;;;6.17;;
46875;SDS011;32866;50.160;14.768;2023-02-28T06:23:21;16.67;;;8.50;;
46875;SDS011;32866;50.160;14.768;2023-02-28T06:28:12;13.60;;;7.20;;
46875;SDS011;32866;50.160;14.768;2023-02-28T06:30:38;16.35;;;7.90;;
46875;SDS011;32866;50.160;14.768;2023-02-28T06:35:29;9.63;;;6.57;;
46875;SDS011;32866;50.160;14.768;2023-02-28T06:37:54;14.55;;;7.65;;
46875;SDS011;32866;50.160;14.768;2023-02-28T06:40:20;18.08;;;8.35;;
46875;SDS011;32866;50.160;14.768;2023-02-28T06:42:45;17.02;;;8.60;;
46875;SDS011;32866;50.160;14.768;2023-02-28T06:45:11;18.83;;;8.15;;
46875;SDS011;32866;50.160;14.768;2023-02-28T06:47:40;14.25;;;8.05;;
46875;SDS011;32866;50.160;14.768;2023-02-28T06:50:07;15.77;;;7.77;;
46875;SDS011;32866;50.160;14.768;2023-02-28T06:52:37;17.93;;;8.13;;
46875;SDS011;32866;50.160;14.768;2023-02-28T06:55:04;12.70;;;7.70;;
46875;SDS011;32866;50.160;14.768;2023-02-28T06:57:31;11.83;;;7.47;;
46875;SDS011;32866;50.160;14.768;2023-02-28T07:00:01;15.27;;;8.37;;
46875;SDS011;32866;50.160;14.768;2023-02-28T07:02:29;15.23;;;8.13;;
46875;SDS011;32866;50.160;14.768;2023-02-28T07:04:54;15.75;;;8.48;;
46875;SDS011;32866;50.160;14.768;2023-02-28T07:07:20;17.83;;;8.88;;
46875;SDS011;32866;50.160;14.768;2023-02-28T07:09:45;14.82;;;9.30;;
46875;SDS011;32866;50.160;14.768;2023-02-28T07:12:11;15.95;;;8.50;;
46875;SDS011;32866;50.160;14.768;2023-02-28T07:14:36;10.30;;;7.35;;
46875;SDS011;32866;50.160;14.768;2023-02-28T07:17:02;13.95;;;7.22;;
46875;SDS011;32866;50.160;14.768;2023-02-28T07:19:28;12.27;;;6.75;;
46875;SDS011;32866;50.160;14.768;2023-02-28T07:21:53;23.80;;;7.10;;
46875;SDS011;32866;50.160;14.768;2023-02-28T07:24:19;13.32;;;8.13;;
46875;SDS011;32866;50.160;14.768;2023-02-28T07:26:44;14.52;;;7.10;;
46875;SDS011;32866;50.160;14.768;2023-02-28T07:29:09;10.13;;;6.50;;
46875;SDS011;32866;50.160;14.768;2023-02-28T07:31:35;9.60;;;5.97;;
46875;SDS011;32866;50.160;14.768;2023-02-28T07:34:00;11.75;;;6.30;;
46875;SDS011;32866;50.160;14.768;2023-02-28T07:36:26;14.73;;;7.13;;
46875;SDS011;32866;50.160;14.768;2023-02-28T07:38:51;12.10;;;7.13;;
46875;SDS011;32866;50.160;14.768;2023-02-28T07:41:17;10.88;;;6.00;;
46875;SDS011;32866;50.160;14.768;2023-02-28T07:43:45;12.73;;;6.33;;
46875;SDS011;32866;50.160;14.768;2023-02-28T07:48:39;8.90;;;5.57;;
46875;SDS011;32866;50.160;14.768;2023-02-28T07:51:05;11.77;;;5.80;;
46875;SDS011;32866;50.160;14.768;2023-02-28T07:53:31;11.88;;;6.53;;
46875;SDS011;32866;50.160;14.768;2023-02-28T07:55:57;9.07;;;6.20;;
46875;SDS011;32866;50.160;14.768;2023-02-28T07:58:24;10.47;;;6.13;;
46875;SDS011;32866;50.160;14.768;2023-02-28T08:00:50;8.43;;;5.70;;
46875;SDS011;32866;50.160;14.768;2023-02-28T08:03:16;8.25;;;5.70;;
46875;SDS011;32866;50.160;14.768;2023-02-28T08:05:43;9.17;;;5.93;;
46875;SDS011;32866;50.160;14.768;2023-02-28T08:08:08;11.15;;;6.20;;
46875;SDS011;32866;50.160;14.768;2023-02-28T08:10:34;7.20;;;5.63;;
46875;SDS011;32866;50.160;14.768;2023-02-28T08:13:00;10.05;;;6.10;;
46875;SDS011;32866;50.160;14.768;2023-02-28T08:15:25;11.75;;;6.13;;
46875;SDS011;32866;50.160;14.768;2023-02-28T08:17:51;11.07;;;6.00;;
46875;SDS011;32866;50.160;14.768;2023-02-28T08:20:16;12.45;;;5.75;;
46875;SDS011;32866;50.160;14.768;2023-02-28T08:22:42;9.07;;;5.50;;
46875;SDS011;32866;50.160;14.768;2023-02-28T08:25:07;10.10;;;6.93;;
46875;SDS011;32866;50.160;14.768;2023-02-28T08:27:33;13.90;;;7.30;;
46875;SDS011;32866;50.160;14.768;2023-02-28T08:29:59;11.10;;;6.65;;
46875;SDS011;32866;50.160;14.768;2023-02-28T08:32:24;8.15;;;5.90;;
46875;SDS011;32866;50.160;14.768;2023-02-28T08:34:49;6.97;;;4.88;;
46875;SDS011;32866;50.160;14.768;2023-02-28T08:37:15;9.95;;;5.90;;
46875;SDS011;32866;50.160;14.768;2023-02-28T08:39:40;11.35;;;6.88;;
46875;SDS011;32866;50.160;14.768;2023-02-28T08:42:06;9.23;;;5.88;;
46875;SDS011;32866;50.160;14.768;2023-02-28T08:44:31;8.48;;;6.38;;
46875;SDS011;32866;50.160;14.768;2023-02-28T08:46:56;8.85;;;5.72;;
46875;SDS011;32866;50.160;14.768;2023-02-28T08:49:22;11.32;;;6.90;;
46875;SDS011;32866;50.160;14.768;2023-02-28T08:51:47;11.98;;;6.00;;
46875;SDS011;32866;50.160;14.768;2023-02-28T08:54:12;9.38;;;5.97;;
46875;SDS011;32866;50.160;14.768;2023-02-28T08:56:40;8.47;;;4.90;;
46875;SDS011;32866;50.160;14.768;2023-02-28T08:59:06;10.63;;;5.80;;
46875;SDS011;32866;50.160;14.768;2023-02-28T09:01:34;6.23;;;5.17;;
46875;SDS011;32866;50.160;14.768;2023-02-28T09:03:59;9.95;;;5.32;;
46875;SDS011;32866;50.160;14.768;2023-02-28T09:06:26;12.63;;;6.77;;
46875;SDS011;32866;50.160;14.768;2023-02-28T09:11:18;11.33;;;6.10;;
46875;SDS011;32866;50.160;14.768;2023-02-28T09:13:44;8.10;;;5.63;;
46875;SDS011;32866;50.160;14.768;2023-02-28T09:16:10;7.93;;;5.78;;
46875;SDS011;32866;50.160;14.768;2023-02-28T09:18:38;7.80;;;5.87;;
46875;SDS011;32866;50.160;14.768;2023-02-28T09:21:04;10.82;;;5.15;;
46875;SDS011;32866;50.160;14.768;2023-02-28T09:23:31;7.50;;;5.77;;
46875;SDS011;32866;50.160;14.768;2023-02-28T09:25:57;8.45;;;4.88;;
46875;SDS011;32866;50.160;14.768;2023-02-28T09:28:22;10.00;;;6.72;;
46875;SDS011;32866;50.160;14.768;2023-02-28T09:30:49;9.90;;;6.35;;
46875;SDS011;32866;50.160;14.768;2023-02-28T09:33:16;9.47;;;6.57;;
46875;SDS011;32866;50.160;14.768;2023-02-28T09:35:42;8.80;;;6.27;;
46875;SDS011;32866;50.160;14.768;2023-02-28T09:38:08;8.30;;;5.18;;
46875;SDS011;32866;50.160;14.768;2023-02-28T09:40:53;8.00;;;5.60;;
46875;SDS011;32866;50.160;14.768;2023-02-28T09:43:21;9.40;;;5.82;;
46875;SDS011;32866;50.160;14.768;2023-02-28T09:45:57;8.80;;;5.50;;
46875;SDS011;32866;50.160;14.768;2023-02-28T09:48:29;7.27;;;5.20;;
46875;SDS011;32866;50.160;14.768;2023-02-28T09:51:05;8.73;;;5.00;;
46875;SDS011;32866;50.160;14.768;2023-02-28T09:53:40;8.77;;;5.30;;
46875;SDS011;32866;50.160;14.768;2023-02-28T09:56:11;8.93;;;5.35;;
46875;SDS011;32866;50.160;14.768;2023-02-28T09:58:51;9.30;;;5.27;;
46875;SDS011;32866;50.160;14.768;2023-02-28T10:01:24;8.70;;;5.83;;
46875;SDS011;32866;50.160;14.768;2023-02-28T10:03:58;11.40;;;6.47;;
46875;SDS011;32866;50.160;14.768;2023-02-28T10:06:29;7.47;;;5.20;;
46875;SDS011;32866;50.160;14.768;2023-02-28T10:09:04;10.77;;;6.13;;
46875;SDS011;32866;50.160;14.768;2023-02-28T10:11:34;7.80;;;5.53;;
46875;SDS011;32866;50.160;14.768;2023-02-28T10:14:04;8.17;;;5.30;;
46875;SDS011;32866;50.160;14.768;2023-02-28T10:16:35;7.40;;;4.70;;
46875;SDS011;32866;50.160;14.768;2023-02-28T10:19:06;8.03;;;5.60;;
46875;SDS011;32866;50.160;14.768;2023-02-28T10:21:53;6.93;;;5.37;;
46875;SDS011;32866;50.160;14.768;2023-02-28T10:24:30;9.60;;;5.80;;
46875;SDS011;32866;50.160;14.768;2023-02-28T10:27:01;8.23;;;5.80;;
46875;SDS011;32866;50.160;14.768;2023-02-28T10:29:40;8.53;;;5.23;;
46875;SDS011;32866;50.160;14.768;2023-02-28T10:32:09;10.43;;;6.40;;
46875;SDS011;32866;50.160;14.768;2023-02-28T10:34:37;8.10;;;5.83;;
46875;SDS011;32866;50.160;14.768;2023-02-28T10:37:03;13.15;;;6.65;;
46875;SDS011;32866;50.160;14.768;2023-02-28T10:42:16;7.17;;;6.33;;
46875;SDS011;32866;50.160;14.768;2023-02-28T10:44:45;8.83;;;6.03;;
46875;SDS011;32866;50.160;14.768;2023-02-28T10:47:17;10.75;;;6.72;;
46875;SDS011;32866;50.160;14.768;2023-02-28T10:49:48;9.77;;;6.33;;
46875;SDS011;32866;50.160;14.768;2023-02-28T10:52:14;9.37;;;6.63;;
46875;SDS011;32866;50.160;14.768;2023-02-28T10:55:15;8.73;;;6.13;;
46875;SDS011;32866;50.160;14.768;2023-02-28T11:00:16;7.57;;;6.47;;
46875;SDS011;32866;50.160;14.768;2023-02-28T11:02:44;9.45;;;5.68;;
46875;SDS011;32866;50.160;14.768;2023-02-28T11:05:21;10.43;;;6.47;;
46875;SDS011;32866;50.160;14.768;2023-02-28T11:07:56;10.70;;;6.75;;
46875;SDS011;32866;50.160;14.768;2023-02-28T11:10:28;8.52;;;6.93;;
46875;SDS011;32866;50.160;14.768;2023-02-28T11:12:59;13.18;;;7.88;;
46875;SDS011;32866;50.160;14.768;2023-02-28T11:15:27;12.13;;;7.10;;
46875;SDS011;32866;50.160;14.768;2023-02-28T11:17:55;8.80;;;6.35;;
46875;SDS011;32866;50.160;14.768;2023-02-28T11:20:31;11.43;;;6.97;;
46875;SDS011;32866;50.160;14.768;2023-02-28T11:22:58;11.63;;;7.00;;
46875;SDS011;32866;50.160;14.768;2023-02-28T11:25:29;10.30;;;7.03;;
46875;SDS011;32866;50.160;14.768;2023-02-28T11:28:31;8.90;;;6.40;;
46875;SDS011;32866;50.160;14.768;2023-02-28T11:30:59;11.40;;;6.17;;
46875;SDS011;32866;50.160;14.768;2023-02-28T11:33:40;9.53;;;6.67;;
46875;SDS011;32866;50.160;14.768;2023-02-28T11:36:11;12.20;;;7.40;;
46875;SDS011;32866;50.160;14.768;2023-02-28T11:38:39;11.52;;;6.78;;
46875;SDS011;32866;50.160;14.768;2023-02-28T11:41:12;9.30;;;6.63;;
46875;SDS011;32866;50.160;14.768;2023-02-28T11:56:52;8.50;;;6.28;;
46875;SDS011;32866;50.160;14.768;2023-02-28T12:10:27;7.95;;;6.38;;
46875;SDS011;32866;50.160;14.768;2023-02-28T12:18:25;11.70;;;6.82;;
46875;SDS011;32866;50.160;14.768;2023-02-28T12:21:01;10.18;;;7.00;;
46875;SDS011;32866;50.160;14.768;2023-02-28T12:26:11;11.65;;;7.93;;
46875;SDS011;32866;50.160;14.768;2023-02-28T12:28:53;11.20;;;7.40;;
46875;SDS011;32866;50.160;14.768;2023-02-28T12:31:24;10.50;;;7.00;;
46875;SDS011;32866;50.160;14.768;2023-02-28T12:33:56;8.88;;;6.93;;
46875;SDS011;32866;50.160;14.768;2023-02-28T12:36:27;9.30;;;7.30;;
46875;SDS011;32866;50.160;14.768;2023-02-28T12:39:02;11.52;;;7.75;;
46875;SDS011;32866;50.160;14.768;2023-02-28T12:41:37;11.20;;;6.85;;
46875;SDS011;32866;50.160;14.768;2023-02-28T12:44:15;9.10;;;7.72;;
46875;SDS011;32866;50.160;14.768;2023-02-28T12:46:48;9.13;;;6.40;;
46875;SDS011;32866;50.160;14.768;2023-02-28T12:49:17;10.07;;;7.60;;
46875;SDS011;32866;50.160;14.768;2023-02-28T12:51:46;8.50;;;6.35;;
46875;SDS011;32866;50.160;14.768;2023-02-28T12:54:25;10.38;;;7.45;;
46875;SDS011;32866;50.160;14.768;2023-02-28T13:00:15;14.07;;;8.63;;
46875;SDS011;32866;50.160;14.768;2023-02-28T13:02:49;8.68;;;7.38;;
46875;SDS011;32866;50.160;14.768;2023-02-28T13:08:29;11.52;;;8.10;;
46875;SDS011;32866;50.160;14.768;2023-02-28T13:11:26;12.55;;;7.60;;
46875;SDS011;32866;50.160;14.768;2023-02-28T13:13:58;10.15;;;7.18;;
46875;SDS011;32866;50.160;14.768;2023-02-28T13:16:25;11.35;;;8.02;;
46875;SDS011;32866;50.160;14.768;2023-02-28T13:18:50;9.35;;;8.35;;
46875;SDS011;32866;50.160;14.768;2023-02-28T13:26:21;11.80;;;7.45;;
46875;SDS011;32866;50.160;14.768;2023-02-28T13:31:24;13.63;;;9.15;;
46875;SDS011;32866;50.160;14.768;2023-02-28T13:36:30;11.10;;;7.82;;
46875;SDS011;32866;50.160;14.768;2023-02-28T13:39:00;14.18;;;8.02;;
46875;SDS011;32866;50.160;14.768;2023-02-28T13:41:48;10.97;;;7.60;;
46875;SDS011;32866;50.160;14.768;2023-02-28T13:44:21;10.43;;;7.10;;
46875;SDS011;32866;50.160;14.768;2023-02-28T14:05:45;11.30;;;7.70;;
46875;SDS011;32866;50.160;14.768;2023-02-28T14:08:18;11.43;;;7.57;;
46875;SDS011;32866;50.160;14.768;2023-02-28T14:10:48;11.95;;;7.63;;
46875;SDS011;32866;50.160;14.768;2023-02-28T14:16:00;13.13;;;7.67;;
46875;SDS011;32866;50.160;14.768;2023-02-28T14:18:33;9.93;;;6.73;;
46875;SDS011;32866;50.160;14.768;2023-02-28T14:21:02;10.77;;;7.47;;
46875;SDS011;32866;50.160;14.768;2023-02-28T14:31:36;9.67;;;7.37;;
46875;SDS011;32866;50.160;14.768;2023-02-28T14:37:02;8.97;;;7.27;;
46875;SDS011;32866;50.160;14.768;2023-02-28T14:39:29;10.07;;;7.37;;
46875;SDS011;32866;50.160;14.768;2023-02-28T14:41:56;13.00;;;7.80;;
46875;SDS011;32866;50.160;14.768;2023-02-28T14:44:27;11.03;;;7.67;;
46875;SDS011;32866;50.160;14.768;2023-02-28T14:46:59;12.63;;;7.77;;
46875;SDS011;32866;50.160;14.768;2023-02-28T14:49:31;12.40;;;8.03;;
46875;SDS011;32866;50.160;14.768;2023-02-28T14:52:07;12.23;;;7.77;;
46875;SDS011;32866;50.160;14.768;2023-02-28T14:54:39;13.73;;;7.37;;
46875;SDS011;32866;50.160;14.768;2023-02-28T14:57:06;12.07;;;8.03;;
46875;SDS011;32866;50.160;14.768;2023-02-28T15:02:37;10.03;;;7.30;;
46875;SDS011;32866;50.160;14.768;2023-02-28T15:07:35;11.50;;;7.90;;
46875;SDS011;32866;50.160;14.768;2023-02-28T15:10:09;9.23;;;7.33;;
46875;SDS011;32866;50.160;14.768;2023-02-28T15:12:52;10.83;;;7.60;;
46875;SDS011;32866;50.160;14.768;2023-02-28T15:15:21;11.63;;;7.90;;
46875;SDS011;32866;50.160;14.768;2023-02-28T15:17:49;13.17;;;8.10;;
46875;SDS011;32866;50.160;14.768;2023-02-28T15:20:18;13.00;;;8.13;;
46875;SDS011;32866;50.160;14.768;2023-02-28T15:22:44;9.77;;;6.68;;
46875;SDS011;32866;50.160;14.768;2023-02-28T15:25:13;11.33;;;7.53;;
46875;SDS011;32866;50.160;14.768;2023-02-28T15:27:46;14.40;;;9.47;;
46875;SDS011;32866;50.160;14.768;2023-02-28T15:30:23;11.07;;;7.67;;
46875;SDS011;32866;50.160;14.768;2023-02-28T15:35:38;12.23;;;7.60;;
46875;SDS011;32866;50.160;14.768;2023-02-28T15:40:54;10.17;;;6.97;;
46875;SDS011;32866;50.160;14.768;2023-02-28T15:46:05;11.33;;;7.70;;
46875;SDS011;32866;50.160;14.768;2023-02-28T15:48:37;13.53;;;8.57;;
46875;SDS011;32866;50.160;14.768;2023-02-28T15:51:28;14.27;;;8.67;;
46875;SDS011;32866;50.160;14.768;2023-02-28T15:54:02;11.10;;;7.43;;
46875;SDS011;32866;50.160;14.768;2023-02-28T15:56:31;13.60;;;7.97;;
46875;SDS011;32866;50.160;14.768;2023-02-28T15:59:03;14.00;;;8.60;;
46875;SDS011;32866;50.160;14.768;2023-02-28T16:01:35;13.90;;;8.00;;
46875;SDS011;32866;50.160;14.768;2023-02-28T16:04:04;15.57;;;8.93;;
46875;SDS011;32866;50.160;14.768;2023-02-28T16:06:38;14.40;;;9.23;;
46875;SDS011;32866;50.160;14.768;2023-02-28T16:09:10;14.93;;;8.87;;
46875;SDS011;32866;50.160;14.768;2023-02-28T16:11:39;13.50;;;8.83;;
46875;SDS011;32866;50.160;14.768;2023-02-28T16:14:17;18.43;;;10.07;;
46875;SDS011;32866;50.160;14.768;2023-02-28T16:16:49;20.30;;;9.50;;
46875;SDS011;32866;50.160;14.768;2023-02-28T16:19:16;17.63;;;11.83;;
46875;SDS011;32866;50.160;14.768;2023-02-28T16:21:42;27.50;;;13.38;;
46875;SDS011;32866;50.160;14.768;2023-02-28T16:24:08;30.58;;;14.18;;
46875;SDS011;32866;50.160;14.768;2023-02-28T16:26:33;25.83;;;11.85;;
46875;SDS011;32866;50.160;14.768;2023-02-28T16:29:00;22.35;;;12.68;;
46875;SDS011;32866;50.160;14.768;2023-02-28T16:31:27;27.77;;;12.67;;
46875;SDS011;32866;50.160;14.768;2023-02-28T16:33:52;30.40;;;13.73;;
46875;SDS011;32866;50.160;14.768;2023-02-28T16:36:20;26.88;;;14.57;;
46875;SDS011;32866;50.160;14.768;2023-02-28T16:41:20;34.83;;;16.50;;
46875;SDS011;32866;50.160;14.768;2023-02-28T16:43:48;40.23;;;17.70;;
46875;SDS011;32866;50.160;14.768;2023-02-28T16:46:16;36.50;;;17.23;;
46875;SDS011;32866;50.160;14.768;2023-02-28T16:51:12;32.27;;;17.23;;
46875;SDS011;32866;50.160;14.768;2023-02-28T16:53:39;35.80;;;17.50;;
46875;SDS011;32866;50.160;14.768;2023-02-28T16:56:05;40.25;;;18.23;;
46875;SDS011;32866;50.160;14.768;2023-02-28T16:58:32;45.00;;;20.57;;
46875;SDS011;32866;50.160;14.768;2023-02-28T17:01:00;44.03;;;21.10;;
46875;SDS011;32866;50.160;14.768;2023-02-28T17:03:27;32.80;;;16.10;;
46875;SDS011;32866;50.160;14.768;2023-02-28T17:05:53;35.77;;;17.53;;
46875;SDS011;32866;50.160;14.768;2023-02-28T17:08:19;43.33;;;19.67;;
46875;SDS011;32866;50.160;14.768;2023-02-28T17:10:44;51.10;;;23.25;;
46875;SDS011;32866;50.160;14.768;2023-02-28T17:13:10;47.45;;;21.77;;
46875;SDS011;32866;50.160;14.768;2023-02-28T17:15:36;40.50;;;20.85;;
46875;SDS011;32866;50.160;14.768;2023-02-28T17:20:27;47.87;;;19.87;;
46875;SDS011;32866;50.160;14.768;2023-02-28T17:22:53;46.15;;;21.20;;
46875;SDS011;32866;50.160;14.768;2023-02-28T17:25:19;45.08;;;19.00;;
46875;SDS011;32866;50.160;14.768;2023-02-28T17:27:45;40.07;;;18.20;;
46875;SDS011;32866;50.160;14.768;2023-02-28T17:30:22;39.83;;;19.58;;
46875;SDS011;32866;50.160;14.768;2023-02-28T17:32:52;40.83;;;18.90;;
46875;SDS011;32866;50.160;14.768;2023-02-28T17:35:21;32.87;;;16.83;;
46875;SDS011;32866;50.160;14.768;2023-02-28T17:37:47;36.93;;;18.13;;
46875;SDS011;32866;50.160;14.768;2023-02-28T17:40:14;33.67;;;16.55;;
46875;SDS011;32866;50.160;14.768;2023-02-28T17:42:41;32.90;;;14.90;;
46875;SDS011;32866;50.160;14.768;2023-02-28T17:45:07;23.45;;;13.70;;
46875;SDS011;32866;50.160;14.768;2023-02-28T17:47:32;34.10;;;16.92;;
46875;SDS011;32866;50.160;14.768;2023-02-28T17:49:58;28.55;;;14.65;;
46875;SDS011;32866;50.160;14.768;2023-02-28T17:52:23;29.63;;;14.50;;
46875;SDS011;32866;50.160;14.768;2023-02-28T17:54:49;26.02;;;13.73;;
46875;SDS011;32866;50.160;14.768;2023-02-28T17:57:14;27.65;;;14.57;;